Time;durP1;ratioP1;P1;durP2;ratioP2;P2;SDS_P1;SDS_P2;PMS_P1;PMS_P2;Temp;Humidity;BMP_temperature;BMP_pressure;BME280_temperature;BME280_humidity;BME280_pressure;Samples;Min_cycle;Max_cycle;Signal;HPM_P1;HPM_P2
2021/05/20 00:00:31;;;;;;;1999.90;999.90;;;13.50;99.90;;;;;;5093417;28;20274;-45
2021/05/20 00:02:58;;;;;;;1999.90;999.90;;;13.50;99.90;;;;;;5093492;28;20593;-43
2021/05/20 00:05:25;;;;;;;1999.90;999.90;;;13.50;99.90;;;;;;5093395;28;20168;-43
2021/05/20 00:07:51;;;;;;;1999.90;999.90;;;13.60;99.90;;;;;;5093283;28;20172;-43
2021/05/20 00:10:18;;;;;;;1999.90;999.90;;;13.60;99.90;;;;;;5093235;28;20172;-43
2021/05/20 00:12:45;;;;;;;1999.90;999.90;;;13.70;99.90;;;;;;5093142;28;20691;-45
2021/05/20 00:15:13;;;;;;;1999.90;999.90;;;13.70;99.90;;;;;;5093063;28;20196;-45
2021/05/20 00:17:40;;;;;;;1999.90;999.90;;;13.70;99.90;;;;;;5093374;28;20641;-44
2021/05/20 00:20:08;;;;;;;1999.90;999.90;;;13.70;99.90;;;;;;5093074;28;20196;-43
2021/05/20 00:22:35;;;;;;;1999.90;999.90;;;13.80;99.90;;;;;;5093163;28;20189;-45
2021/05/20 00:25:03;;;;;;;1999.90;999.90;;;13.90;99.90;;;;;;5092794;28;20211;-44
2021/05/20 00:27:30;;;;;;;1999.90;999.90;;;13.90;99.90;;;;;;5092854;28;20160;-44
2021/05/20 00:29:57;;;;;;;1999.90;999.90;;;14.00;99.90;;;;;;5075052;28;20180;-45
2021/05/20 00:32:24;;;;;;;1999.90;999.90;;;14.00;99.90;;;;;;5093005;28;20168;-47
2021/05/20 00:34:51;;;;;;;1999.90;999.90;;;13.90;99.90;;;;;;5092892;28;20203;-45
2021/05/20 00:37:18;;;;;;;1999.90;999.90;;;14.00;99.90;;;;;;5092917;28;20176;-44
2021/05/20 00:39:45;;;;;;;1999.90;999.90;;;14.00;99.90;;;;;;5092860;28;20164;-45
2021/05/20 00:42:13;;;;;;;1999.90;999.90;;;14.00;99.90;;;;;;5093120;28;20279;-45
2021/05/20 00:45:00;;;;;;;1999.90;999.90;;;14.00;99.90;;;;;;5092700;28;20180;-44
2021/05/20 00:47:33;;;;;;;1999.90;999.90;;;14.10;99.90;;;;;;5092911;28;20179;-44
2021/05/20 00:50:01;;;;;;;1999.90;999.90;;;14.10;99.90;;;;;;5092898;28;20203;-45
2021/05/20 00:52:28;;;;;;;1999.90;999.90;;;14.10;99.90;;;;;;5093017;28;20661;-45
2021/05/20 00:54:57;;;;;;;1999.90;999.90;;;14.10;99.90;;;;;;5092656;28;20558;-46
2021/05/20 00:57:25;;;;;;;1999.90;999.90;;;14.20;99.90;;;;;;5092797;28;20198;-45
2021/05/20 00:59:53;;;;;;;1999.90;999.90;;;14.10;99.90;;;;;;5092689;28;20172;-45
2021/05/20 01:02:21;;;;;;;1999.90;999.90;;;14.20;99.90;;;;;;5092688;28;20614;-44
2021/05/20 01:04:48;;;;;;;1999.90;999.90;;;14.20;99.90;;;;;;5092896;28;20616;-45
2021/05/20 01:07:15;;;;;;;1999.90;999.90;;;14.20;99.90;;;;;;5092743;28;20206;-44
2021/05/20 01:09:42;;;;;;;1999.90;999.90;;;14.20;99.90;;;;;;5092667;28;20221;-44
2021/05/20 01:12:11;;;;;;;1999.90;999.90;;;14.20;99.90;;;;;;5092655;28;20172;-44
2021/05/20 01:14:39;;;;;;;1999.90;999.90;;;14.20;99.90;;;;;;5092572;28;20259;-44
2021/05/20 01:17:07;;;;;;;1999.90;999.90;;;14.20;99.90;;;;;;5092595;28;20200;-44
2021/05/20 01:19:38;;;;;;;1999.90;999.90;;;14.30;99.90;;;;;;5092764;28;20167;-44
2021/05/20 01:22:05;;;;;;;1999.90;999.90;;;14.30;99.90;;;;;;5092545;28;20180;-44
2021/05/20 01:24:33;;;;;;;1999.90;999.90;;;14.30;99.90;;;;;;5092648;28;20623;-44
2021/05/20 01:27:04;;;;;;;1999.90;999.90;;;14.30;99.90;;;;;;5092376;28;20216;-44
2021/05/20 01:29:31;;;;;;;1999.90;999.90;;;14.30;99.90;;;;;;5092603;28;20167;-45
2021/05/20 01:31:59;;;;;;;1999.90;999.90;;;14.30;99.90;;;;;;5092458;28;20164;-47
2021/05/20 01:34:26;;;;;;;1999.90;999.90;;;14.30;99.90;;;;;;5092411;28;20686;-45
2021/05/20 01:36:53;;;;;;;1999.90;999.90;;;14.30;99.90;;;;;;5092400;28;20286;-45
2021/05/20 01:39:20;;;;;;;1999.90;999.90;;;14.30;99.90;;;;;;5094045;28;20177;-46
2021/05/20 01:41:47;;;;;;;1999.90;999.90;;;14.30;99.90;;;;;;5095883;28;20266;-47
2021/05/20 01:44:14;;;;;;;1999.90;999.90;;;14.30;99.90;;;;;;5095931;28;20203;-44
2021/05/20 01:46:40;;;;;;;1999.90;999.90;;;14.30;99.90;;;;;;5095890;28;20191;-45
2021/05/20 01:49:11;;;;;;;1999.90;999.90;;;14.30;99.90;;;;;;5095896;28;20175;-45
2021/05/20 01:51:38;;;;;;;1999.90;999.90;;;14.30;99.90;;;;;;5096013;28;20168;-44
2021/05/20 01:54:05;;;;;;;1999.90;999.90;;;14.30;99.90;;;;;;5095999;28;20166;-45
2021/05/20 01:56:38;;;;;;;1999.90;999.90;;;14.30;99.90;;;;;;5095856;28;20191;-44
2021/05/20 01:59:06;;;;;;;1999.90;999.90;;;14.30;99.90;;;;;;5095979;28;20164;-44
2021/05/20 02:01:34;;;;;;;1999.90;999.90;;;14.30;99.90;;;;;;5095612;28;20167;-44
2021/05/20 02:04:01;;;;;;;1999.90;999.90;;;14.30;99.90;;;;;;5095508;28;20166;-45
2021/05/20 02:06:28;;;;;;;1999.90;999.90;;;14.30;99.90;;;;;;5095504;28;20162;-43
2021/05/20 02:08:55;;;;;;;1999.90;999.90;;;14.30;99.90;;;;;;5095389;28;20192;-44
2021/05/20 02:11:22;;;;;;;1999.90;999.90;;;14.30;99.90;;;;;;5095386;28;20225;-46
2021/05/20 02:13:49;;;;;;;1999.90;999.90;;;14.30;99.90;;;;;;5095338;28;20167;-45
2021/05/20 02:16:16;;;;;;;1999.90;999.90;;;14.30;99.90;;;;;;5095219;28;20191;-45
2021/05/20 02:18:43;;;;;;;1999.90;999.90;;;14.30;99.90;;;;;;5095298;28;20247;-43
2021/05/20 02:21:10;;;;;;;1999.90;999.90;;;14.30;99.90;;;;;;5095145;28;20164;-44
2021/05/20 02:23:37;;;;;;;1999.90;999.90;;;14.30;99.90;;;;;;5095128;28;20601;-44
2021/05/20 02:26:05;;;;;;;1999.90;999.90;;;14.30;99.90;;;;;;5094922;28;20245;-45
2021/05/20 02:28:32;;;;;;;1999.90;999.90;;;14.30;99.90;;;;;;5095005;28;20163;-45
2021/05/20 02:30:59;;;;;;;1999.90;999.90;;;14.40;99.90;;;;;;5094872;28;20199;-44
2021/05/20 02:33:26;;;;;;;1999.90;999.90;;;14.40;99.90;;;;;;5094889;28;20160;-44
2021/05/20 02:35:52;;;;;;;1999.90;999.90;;;14.40;99.90;;;;;;5094800;28;20204;-45
2021/05/20 02:38:19;;;;;;;1999.90;999.90;;;14.40;99.90;;;;;;5094872;28;20164;-46
2021/05/20 02:40:46;;;;;;;1999.90;999.90;;;14.40;99.90;;;;;;5094799;28;20273;-46
2021/05/20 02:43:13;;;;;;;1999.90;999.90;;;14.40;99.90;;;;;;5094747;28;20610;-45
2021/05/20 02:45:40;;;;;;;1999.90;999.90;;;14.40;99.90;;;;;;5094816;28;20179;-45
2021/05/20 02:48:07;;;;;;;1999.90;999.90;;;14.40;99.90;;;;;;5094828;28;20246;-45
2021/05/20 02:50:34;;;;;;;1999.90;999.90;;;14.40;99.90;;;;;;5094348;28;20518;-45
2021/05/20 02:53:01;;;;;;;1999.90;999.90;;;14.40;99.90;;;;;;5094613;28;20164;-45
2021/05/20 02:55:28;;;;;;;1999.90;999.90;;;14.40;99.90;;;;;;5094511;28;20207;-44
2021/05/20 02:57:58;;;;;;;1999.90;999.90;;;14.40;99.90;;;;;;5094488;28;20213;-44
2021/05/20 03:00:33;;;;;;;1999.90;999.90;;;14.40;99.90;;;;;;5094400;28;20191;-45
2021/05/20 03:03:01;;;;;;;1999.90;999.90;;;14.50;99.90;;;;;;5094380;28;20159;-45
2021/05/20 03:05:30;;;;;;;1999.90;999.90;;;14.50;99.90;;;;;;5094332;28;20626;-46
2021/05/20 03:07:58;;;;;;;1999.90;999.90;;;14.40;99.90;;;;;;5094165;28;20224;-51
2021/05/20 03:10:25;;;;;;;1999.90;999.90;;;14.50;99.90;;;;;;5094267;28;20167;-44
2021/05/20 03:12:52;;;;;;;1999.90;999.90;;;14.50;99.90;;;;;;5094173;28;20225;-44
2021/05/20 03:15:19;;;;;;;1999.90;999.90;;;14.50;99.90;;;;;;5094011;28;20207;-47
2021/05/20 03:17:46;;;;;;;1999.90;999.90;;;14.50;99.90;;;;;;5094120;28;20171;-45
2021/05/20 03:20:14;;;;;;;1999.90;999.90;;;14.50;99.90;;;;;;5094098;28;20534;-45
2021/05/20 03:22:42;;;;;;;1999.90;999.90;;;14.50;99.90;;;;;;5094376;28;20565;-46
2021/05/20 03:25:09;;;;;;;1999.90;999.90;;;14.50;99.90;;;;;;5093723;28;20683;-47
2021/05/20 03:27:36;;;;;;;1999.90;999.90;;;14.50;99.90;;;;;;5094036;28;20565;-45
2021/05/20 03:30:03;;;;;;;1999.90;999.90;;;14.50;99.90;;;;;;5093874;28;20267;-44
2021/05/20 03:32:30;;;;;;;1999.90;999.90;;;14.50;99.90;;;;;;5093792;28;20258;-44
2021/05/20 03:34:57;;;;;;;1999.90;999.90;;;14.50;99.90;;;;;;5093729;28;20305;-45
2021/05/20 03:37:24;;;;;;;1999.90;999.90;;;14.50;99.90;;;;;;5093747;28;20258;-46
2021/05/20 03:39:50;;;;;;;1999.90;999.90;;;14.50;99.90;;;;;;5093715;28;20172;-45
2021/05/20 03:42:17;;;;;;;1999.90;999.90;;;14.50;99.90;;;;;;5093721;28;20175;-45
2021/05/20 03:44:44;;;;;;;1999.90;999.90;;;14.50;99.90;;;;;;5093797;28;20168;-45
2021/05/20 03:47:11;;;;;;;1999.90;999.90;;;14.50;99.90;;;;;;5093633;28;20221;-45
2021/05/20 03:49:38;;;;;;;1999.90;999.90;;;14.50;99.90;;;;;;5093542;28;20514;-45
2021/05/20 03:52:06;;;;;;;1999.90;999.90;;;14.50;99.90;;;;;;5093559;28;20168;-44
2021/05/20 03:54:33;;;;;;;1999.90;999.90;;;14.50;99.90;;;;;;5093541;28;20537;-45
2021/05/20 03:57:00;;;;;;;1999.90;999.90;;;14.50;99.90;;;;;;5093646;28;20211;-46
2021/05/20 03:59:27;;;;;;;1999.90;999.90;;;14.50;99.90;;;;;;5093525;28;20160;-45
2021/05/20 04:01:54;;;;;;;1999.90;999.90;;;14.50;99.90;;;;;;5092775;28;20182;-44
2021/05/20 04:04:21;;;;;;;1999.90;999.90;;;14.50;99.90;;;;;;5093438;28;20251;-45
2021/05/20 04:06:47;;;;;;;1999.90;999.90;;;14.50;99.90;;;;;;5093470;28;20167;-44
2021/05/20 04:09:14;;;;;;;1999.90;999.90;;;14.50;99.90;;;;;;5093506;28;20238;-45
2021/05/20 04:11:41;;;;;;;1999.90;999.90;;;14.50;99.90;;;;;;5093307;28;20160;-45
2021/05/20 04:14:08;;;;;;;1999.90;999.90;;;14.50;99.90;;;;;;5093195;28;20168;-46
2021/05/20 04:16:35;;;;;;;1999.90;999.90;;;14.50;99.90;;;;;;5092960;28;20207;-47
2021/05/20 04:19:03;;;;;;;1999.90;999.90;;;14.60;99.90;;;;;;5093222;28;20649;-46
2021/05/20 04:21:33;;;;;;;1999.90;999.90;;;14.60;99.90;;;;;;5093020;28;20179;-46
2021/05/20 04:24:00;;;;;;;1999.90;999.90;;;14.60;99.90;;;;;;5093048;28;20241;-46
2021/05/20 04:26:27;;;;;;;1999.90;999.90;;;14.60;99.90;;;;;;5092647;28;20259;-48
2021/05/20 04:28:54;;;;;;;1999.90;999.90;;;14.60;99.90;;;;;;5092933;28;20629;-47
2021/05/20 04:31:22;;;;;;;1999.90;999.90;;;14.60;99.90;;;;;;5092895;28;20237;-46
2021/05/20 04:33:49;;;;;;;1999.90;999.90;;;14.60;99.90;;;;;;5093062;28;20679;-47
2021/05/20 04:36:15;;;;;;;1999.90;999.90;;;14.60;99.90;;;;;;5092862;28;20578;-46
2021/05/20 04:38:43;;;;;;;1999.90;999.90;;;14.60;99.90;;;;;;5092726;28;20186;-50
2021/05/20 04:41:10;;;;;;;1999.90;999.90;;;14.60;99.90;;;;;;5093037;28;20203;-47
2021/05/20 04:43:36;;;;;;;1999.90;999.90;;;14.70;99.90;;;;;;5092824;28;20164;-46
2021/05/20 04:46:03;;;;;;;1999.90;999.90;;;14.70;99.90;;;;;;5092834;28;20171;-47
2021/05/20 04:48:31;;;;;;;1999.90;999.90;;;14.70;99.90;;;;;;5092993;28;20589;-48
2021/05/20 04:51:00;;;;;;;1999.90;999.90;;;14.70;99.90;;;;;;5092800;28;20276;-47
2021/05/20 04:53:28;;;;;;;1999.90;999.90;;;14.70;99.90;;;;;;5092710;28;20176;-46
2021/05/20 04:55:55;;;;;;;1999.90;999.90;;;14.70;99.90;;;;;;5092652;28;20192;-49
2021/05/20 04:58:22;;;;;;;1999.90;999.90;;;14.70;99.90;;;;;;5092882;28;20180;-45
2021/05/20 05:00:49;;;;;;;1999.90;999.90;;;14.80;99.90;;;;;;5092783;28;20533;-46
2021/05/20 05:03:16;;;;;;;1999.90;999.90;;;14.80;99.90;;;;;;5092723;28;20537;-47
2021/05/20 05:05:43;;;;;;;1999.90;999.90;;;14.80;99.90;;;;;;5092633;28;20619;-48
2021/05/20 05:08:10;;;;;;;1999.90;999.90;;;14.80;99.90;;;;;;5092433;28;20180;-47
2021/05/20 05:10:37;;;;;;;1999.90;999.90;;;14.70;99.90;;;;;;5092587;28;20625;-47
2021/05/20 05:13:04;;;;;;;1999.90;999.90;;;14.70;99.90;;;;;;5092438;28;20168;-48
2021/05/20 05:15:31;;;;;;;1999.90;999.90;;;14.80;99.90;;;;;;5096185;28;20191;-47
2021/05/20 05:17:58;;;;;;;1999.90;999.90;;;14.80;99.90;;;;;;5096249;28;20568;-49
2021/05/20 05:20:24;;;;;;;1999.90;999.90;;;14.80;99.90;;;;;;5096344;28;20469;-48
2021/05/20 05:22:51;;;;;;;1999.90;999.90;;;14.80;99.90;;;;;;5096425;28;20388;-50
2021/05/20 05:25:18;;;;;;;1999.90;999.90;;;14.80;99.90;;;;;;5095994;28;20207;-48
2021/05/20 05:27:45;;;;;;;1999.90;999.90;;;14.80;99.90;;;;;;5096211;28;20179;-52
2021/05/20 05:30:13;;;;;;;1999.90;999.90;;;14.80;99.90;;;;;;5096001;28;20198;-48
2021/05/20 05:32:40;;;;;;;1999.90;999.90;;;14.80;99.90;;;;;;5095929;28;20186;-54
2021/05/20 05:35:07;;;;;;;1999.90;999.90;;;14.70;99.90;;;;;;5095879;28;20603;-57
2021/05/20 05:37:34;;;;;;;1999.90;999.90;;;14.70;99.90;;;;;;5095909;28;20625;-49
2021/05/20 05:40:01;;;;;;;1999.90;999.90;;;14.80;99.90;;;;;;5095970;28;20610;-50
2021/05/20 05:42:27;;;;;;;1999.90;999.90;;;14.80;99.90;;;;;;5095840;28;20624;-46
2021/05/20 05:44:54;;;;;;;1999.90;999.90;;;14.80;99.90;;;;;;5095851;28;20224;-45
2021/05/20 05:47:43;;;;;;;1999.90;999.90;;;14.80;99.90;;;;;;5096024;28;20210;-45
2021/05/20 05:50:12;;;;;;;1999.90;999.90;;;14.80;99.90;;;;;;5095824;28;20250;-45
2021/05/20 05:52:40;;;;;;;1999.90;999.90;;;14.70;99.90;;;;;;5095589;28;20199;-46
2021/05/20 05:55:08;;;;;;;1999.90;999.90;;;14.70;99.90;;;;;;5095528;28;20199;-49
2021/05/20 05:57:35;;;;;;;1999.90;999.90;;;14.70;99.90;;;;;;5095469;28;20168;-46
2021/05/20 06:00:02;;;;;;;1999.90;999.90;;;14.70;99.90;;;;;;5094840;28;20164;-45
2021/05/20 06:02:32;;;;;;;1999.90;999.90;;;14.70;99.90;;;;;;5095280;28;20179;-46
2021/05/20 06:04:59;;;;;;;1999.90;999.90;;;14.70;99.90;;;;;;5094915;28;20167;-39
2021/05/20 06:07:26;;;;;;;1999.90;999.90;;;14.70;99.90;;;;;;5092241;28;20172;-36
2021/05/20 06:09:53;;;;;;;1999.90;999.90;;;14.80;99.90;;;;;;5093270;28;20586;-39
2021/05/20 06:12:20;;;;;;;1999.90;999.90;;;14.90;99.90;;;;;;5093841;28;20205;-41
2021/05/20 06:14:46;;;;;;;1999.90;999.90;;;15.00;99.90;;;;;;5094032;28;20168;-61
2021/05/20 06:17:13;;;;;;;1999.90;999.90;;;15.20;99.90;;;;;;5094227;28;20255;-54
2021/05/20 06:19:40;;;;;;;1999.90;999.90;;;15.20;99.90;;;;;;5093436;28;20160;-57
2021/05/20 06:22:07;;;;;;;1999.90;999.90;;;15.30;99.90;;;;;;5094855;28;20172;-59
2021/05/20 06:24:33;;;;;;;1999.90;999.90;;;15.40;99.90;;;;;;5094118;28;20209;-47
2021/05/20 06:27:00;;;;;;;1999.90;999.90;;;15.40;99.90;;;;;;5094543;28;20211;-46
2021/05/20 06:29:27;;;;;;;1999.90;999.90;;;15.50;99.90;;;;;;5094789;28;20163;-51
2021/05/20 06:31:54;;;;;;;1999.90;999.90;;;15.50;99.90;;;;;;5094462;28;20245;-43
2021/05/20 06:34:20;;;;;;;1999.90;999.90;;;15.70;99.90;;;;;;5094642;28;20174;-49
2021/05/20 06:36:47;;;;;;;1999.90;999.90;;;15.30;99.90;;;;;;5094371;28;20284;-43
2021/05/20 06:39:14;;;;;;;1999.90;999.90;;;15.10;99.90;;;;;;5074608;28;20179;-55
2021/05/20 06:41:40;;;;;;;1999.90;999.90;;;15.10;99.90;;;;;;5093767;28;20168;-52
2021/05/20 06:44:08;;;;;;;1999.90;999.90;;;15.20;99.90;;;;;;5094040;28;20171;-39
2021/05/20 06:46:35;;;;;;;1999.90;999.90;;;15.20;99.90;;;;;;5093992;28;20199;-38
2021/05/20 06:49:01;;;;;;;1999.90;999.90;;;15.50;99.90;;;;;;5093882;28;20198;-59
2021/05/20 06:51:29;;;;;;;1999.90;999.90;;;15.80;99.90;;;;;;5094227;28;20172;-53
2021/05/20 06:53:56;;;;;;;1999.90;999.90;;;15.50;99.90;;;;;;5093890;28;20245;-51
2021/05/20 06:56:25;;;;;;;1999.90;999.90;;;15.20;99.90;;;;;;5094026;28;20712;-42
2021/05/20 07:01:44;;;;;;;1999.90;999.90;;;15.50;99.90;;;;;;5094472;28;20198;-58
2021/05/20 07:04:11;;;;;;;1999.90;999.90;;;15.40;99.90;;;;;;5075396;28;20195;-46
2021/05/20 07:06:38;;;;;;;1999.90;999.90;;;15.20;99.90;;;;;;5093599;28;20179;-53
2021/05/20 07:09:06;;;;;;;1999.90;999.90;;;15.10;99.90;;;;;;5093676;28;20167;-49
2021/05/20 07:11:33;;;;;;;1999.90;999.90;;;15.10;99.90;;;;;;5093734;28;20208;-55
2021/05/20 07:14:00;;;;;;;1999.90;999.90;;;15.00;99.90;;;;;;5093635;28;20168;-47
2021/05/20 07:16:27;;;;;;;1999.90;999.90;;;15.20;99.90;;;;;;5093641;28;20215;-47
2021/05/20 07:18:54;;;;;;;1999.90;999.90;;;15.20;99.90;;;;;;5093721;28;20167;-50
2021/05/20 07:21:21;;;;;;;1999.90;999.90;;;15.10;99.90;;;;;;5093567;28;20613;-52
2021/05/20 07:23:47;;;;;;;1999.90;999.90;;;15.20;99.90;;;;;;5093559;28;20160;-44
2021/05/20 07:26:14;;;;;;;1999.90;999.90;;;15.10;99.90;;;;;;5091144;28;20261;-46
2021/05/20 07:28:41;;;;;;;1999.90;999.90;;;15.00;99.90;;;;;;5093625;28;20187;-49
2021/05/20 07:31:07;;;;;;;1999.90;999.90;;;15.00;99.90;;;;;;5093560;28;20168;-48
2021/05/20 07:33:35;;;;;;;1999.90;999.90;;;14.90;99.90;;;;;;5093730;28;20666;-48
2021/05/20 07:36:02;;;;;;;1999.90;999.90;;;14.50;99.90;;;;;;5092844;28;20207;-46
